KASH Airport (Boire Field) Information

FAA: ASH - ICAO: KASH

KASH Airport Location

State New Hampshire
County Hillsborough
City Nashua
KASH Airport is 3 miles northwest of Nashua, NH.
Latitude 42-46-56.6900N
Longitude 071-30-50.7400W
Elevation 200ft

KASH Airport METARs

METAR KASH 280156Z AUTO 04007KT 10SM OVC040 11/06 A2986 RMK AO2 SLP117 T01110061
Altimeter 29.86"
Temperature 11.1°C (52.0°F)
Wind 40° at 7KT
Clouds overcast at 4,000ft
Visibility 10.0mi
Time observed: 2021-10-28T01:56:00Z

KASH Airport Details

Status Operational
Activation March 1947
Ownership Public
Usage Public
Chart NEW YORK
ATC on-site Yes
Beacon schedule sunset-sunrise
Beacon color clear green

KASH Airport Contacts

Owner NASHUA AIRPORT AUTHORITY
Owner address 93 PERIMETER ROAD, NASHUA, NH 03063
Owner phone 603-882-0661
Manager JEFFREY M. DAVIS
Manager address 24 PERLEY HILL RD, SANBORNTON, NH 03269
Manager phone 603-520-2746

KASH Airport (Boire Field) Radio Frequencies

KASH (Airport) Radio Frequencies

UNICOM N/A
Common traffic advisory frequency (CTAF) 133.2